Radar AviationWeather DUATS TFRs Wunderground Accuweather Weather.com

alt : Radar

TAFs

KDTW 230903Z 2309/2412 07007KT P6SM FEW250
   FM231500 11009KT P6SM SCT250
   FM232200 13007KT P6SM BKN150
   FM240600 14005KT P6SM BKN090 OVC150
KCLE 230817Z 2308/2412 13010KT P6SM SKC
   FM231500 14011G20KT P6SM BKN250
   FM232000 07011KT P6SM SCT060 BKN100
   FM240000 15010KT P6SM SCT060 BKN100
   FM240900 12010KT P6SM VCSH OVC035
KCLE 230817Z 2308/2412 13010KT P6SM SKC
   FM231500 14011G20KT P6SM BKN250
   FM232000 07011KT P6SM SCT060 BKN100
   FM240000 15010KT P6SM SCT060 BKN100
   FM240900 12010KT P6SM VCSH OVC035
KFWA 230533Z 2306/2406 07008KT P6SM BKN250
   FM231800 10012KT P6SM BKN080
   FM232200 11012KT P6SM VCSH BKN035
KJXN 230530Z 2306/2406 09004KT P6SM SKC
   FM231500 11010KT P6SM BKN250
KJXN 230530Z 2306/2406 09004KT P6SM SKC
   FM231500 11010KT P6SM BKN250
KTOL 230523Z 2306/2406 07005KT P6SM SCT250
   FM231600 10010G18KT P6SM FEW060 BKN250
   FM232200 12010KT P6SM SCT060 BKN100
   FM240500 10010KT P6SM SCT020 OVC035
KFDY 230523Z 2306/2406 07007KT P6SM SCT250
   FM231400 11010KT P6SM BKN250
   FM231800 15010G18KT P6SM SCT050 BKN100
   FM240300 11011KT P6SM VCSH SCT020 OVC035
   FM240500 10010KT P6SM VCSH SCT015 OVC030

METARs

KJXN 230856Z AUTO 04003KT 10SM CLR 03/M03 A3024 RMK AO2 SLP243 T00331033 56015
KDUH 230855Z AUTO 08004KT 10SM CLR 08/00 A3023 RMK AO2 T00751001
KFWA 230854Z 05008KT 10SM FEW170 BKN250 04/M02 A3018 RMK AO2 SLP222 T00441017 56013 $
KDTW 230853Z 06008KT 10SM FEW230 08/M04 A3025 RMK AO2 SLP245 T00781039 56014
KFDY 230853Z AUTO 06009KT 10SM CLR 07/M03 A3018 RMK AO2 SLP216 T00721033 56013
KTDZ 230853Z AUTO 05007KT 10SM CLR 06/01 A3023 RMK AO2 SLP238 T00610011 56013
KTOL 230852Z 06007KT 10SM CLR 06/01 A3022 RMK AO2 SLP234 T00610006 56014
KCLE 230851Z 11010KT 10SM FEW250 11/00 A3025 RMK AO2 SLP245 T01110000 56008

alt : Satellite

alt : TFRs